首页
METAR-TAF:

METAR-TAF

机场 :

沈阳桃仙国际机场

沈阳, 中华人民共和国

纬度: 41-48N, 经度: 123-24E, 海拔: 35米

当前天气观测

该预报发布于28分钟前的04:00 UTC
风速10节,风向西转西南,在西南西之间变化
温度 8°C
湿度 27%
气压 1018 hPa
能见度10公里或以上
1500米以下无云,无积雨云

METAR: ZYTX 180400Z 24005MPS 220V280 CAVOK 08/M10 Q1018 NOSIG

时间: 12:28 (04:28 UTC)

预报

该预报发布于9小时和22分钟前的19:06 UTC
预报有效从18日的 00点(UTC)到 18日的 24点(UTC)
风速6节,风向
能见度10公里或以上
1500米以下无云,无积雨云
成为
从 18日的 04点(UTC)到 18日的 05点(UTC)
风速8节,风向北转西北

TAF: ZYTX 171906Z 1800/1824 19003MPS CAVOK TX06/1806Z TNM05/21Z BECMG 1804/1805 34004MPS

超过4000个机场的气象观测和天气预报(METAR&TAF报告)。

可查询的气象台以黄色和红色小点在地图上表示。

将鼠标移到小点上方,可查看气象台名称。

然后点击查看天气观测和预报。

如需切换地图:点击带黑十字的绿色按钮放大地图;点击带横线的绿色按钮缩小地图;或者点击绿色箭头查看邻近地区的地图。


METAR-TAF: